Tiempo atmosférico en la estación meteorológica de Bailén, Jaén (345 m.)



Fecha
DESCASC
Temp. máxima en grados centígrados (hora)
DESCASC
Temp. mínima en grados centígrados (hora)
DESCASC
Temp. media en grados centígrados
DESCASC
Racha de viento máxima en m/sg (hora)
DESCASC
Velocidad máxima media en intervalos de 10 minutos(hora)
DESCASC
Precipitaciones diarias en mm
DESCASC
Precipitaciones de 00:00 a 06:00 en mm
DESCASC
Precipitaciones de 06:00 a 12:00 en mm
DESCASC
Precipitaciones de 12:00 a 18:00 en mm
DESCASC
Precipitaciones de 18:00 a 24:00 en mm
DESCASC
23-05-2018 27.3 (12:50) 14.7 (07:20) 21 6.94 (16:20) 3.61 (17:00) 0 0 0 0 0
22-05-2018 29.2 (17:10) 14 (03:00) 21.6 4.44 (20:40) 1.67 (11:30) 0 0 0 0 0
21-05-2018 25.6 (16:20) 14.5 (04:10) 20.1 6.94 (18:00) 2.5 (18:00) 0 0 0 0 0
20-05-2018 27.9 (17:10) 12.6 (00:00) 20.3 8.33 (20:00) 2.22 (19:00) 0 0 0 0 0
19-05-2018 28.8 (16:40) 14.1 (00:00) 21.4 9.17 (21:30) 4.17 (14:40) 0 0 0 0 0
18-05-2018 26.7 (17:30) 16.2 (00:00) 21.5 7.78 (17:20) 4.17 (17:40) 0 0 0 0 0
17-05-2018 31.3 (17:30) 14 (00:00) 22.6 8.61 (03:50) 3.61 (17:10) 0 0 0 0 0
16-05-2018 31.6 (16:40) 14.4 (00:00) 23 6.67 (14:40) 3.89 (21:20) 0 0 0 0 0
15-05-2018 29.5 (16:30) 12 (00:00) 20.8 6.11 (18:30) 2.78 (09:20) 0 0 0 0 0
14-05-2018 27 (15:40) 9.2 (00:00) 18.1 6.94 (19:20) 3.33 (19:00) 0 0 0 0 0
13-05-2018 24.6 (17:30) 8.7 (00:00) 16.7 6.94 (11:40) 2.78 (11:50) 0 0 0 0 0
12-05-2018 23.8 (16:50) 13.1 (00:00) 18.4 9.17 (20:00) 4.72 (20:00) 0 0 0 0 0
11-05-2018 27.3 (17:10) 11.6 (07:30) 19.4 8.06 (18:10) 3.06 (19:30) 0 0 0 0 0
10-05-2018 24.8 (18:00) 14.7 (00:00) 19.7 6.11 (02:40) 1.94 (09:50) 0 0 0 0 0
09-05-2018 22.5 (17:20) 15 (00:00) 18.8 7.5 (21:20) 2.5 (18:40) 0 0 0 0 0
08-05-2018 27.6 (16:20) 13.3 (00:00) 20.5 5.83 (17:10) 2.22 (21:30) 0 0 0 0 0
07-05-2018 28.6 (16:20) 13.8 (00:00) 21.2 8.89 (20:10) 4.72 (20:10) 0 0 0 0 0
06-05-2018 29.1 (17:30) 15.4 (00:00) 22.3 8.06 (18:20) 3.89 (15:50) 0 0 0 0 0
05-05-2018 29.1 (16:00) 13.8 (00:00) 21.5 8.89 (20:40) 4.72 (20:50) 0 0 0 0 0
04-05-2018 26.4 (17:00) 10.4 (00:00) 18.4 6.11 (09:30) 3.06 (12:00) 0 0 0 0 0
03-05-2018 24.4 (16:20) 8.5 (00:00) 16.4 7.78 (18:00) 4.17 (18:00) 0 0 0 0 0
02-05-2018 21 (16:00) 4.9 (00:00) 13 5.83 (15:20) 1.94 (16:00) 0 0 0 0 0
01-05-2018 14.4 (18:40) 5.5 (06:50) 9.9 8.33 (12:40) 3.33 (13:00) 0 0 0 0 0
30-04-2018 17.6 (17:30) 8.7 (00:00) 13.2 6.39 (20:00) 3.06 (20:00) 0 0 0 0 0
29-04-2018 18 (17:00) 8.4 (00:00) 13.2 10.28 (16:20) 3.33 (16:50) 0 0 0 0 0
28-04-2018 21.5 (16:00) 12.3 (00:00) 16.9 11.11 (16:30) 4.17 (16:30) 0 0 0 0 0
27-04-2018 25.8 (17:20) 16.1 (00:00) 20.9 8.61 (00:40) 2.5 (01:20) 0 0 0 0 0
26-04-2018 31.3 (18:00) 14.1 (00:00) 22.7 8.61 (22:30) 2.78 (22:00) 0 0 0 0 0
25-04-2018 27.8 (16:00) 15.1 (00:00) 21.4 6.11 (02:50) 3.06 (04:50) 0 0 0 0 0
24-04-2018 32.3 (18:00) 17.5 (00:00) 24.9 10.83 (01:50) 3.89 (01:30) 0 0 0 0 0

Gráficas

Temp. máximas Temp. mínimas Temp. medias Precipitaciones Rachas de viento máximas Velocidades máximas media en intervalos de 10 minutos

Datos horarios

Fecha y hora oficial Temperatura (ºC) Velocidad del viento (km/h) Dirección del viento Racha (km/h) Dirección de racha Precipitación (mm) Presión (hPa) Tendencia (hPa) Humedad (%)
2018-05-23 23:00:00 20.7 3 Nordeste 12 Nordeste 0 -- -- 57
2018-05-23 22:00:00 21.9 6 Nordeste 15 Norte 0 -- -- 54
2018-05-23 21:00:00 23.2 7 Nordeste 19 Este 0 -- -- 52
2018-05-23 20:00:00 24.4 10 Nordeste 20 Nordeste 0 -- -- 48
2018-05-23 19:00:00 25.7 9 Este 17 Este 0 -- -- 48
2018-05-23 18:00:00 25.8 6 Este 22 Este 0 -- -- 48
2018-05-23 17:00:00 26.2 13 Este 25 Este 0 -- -- 44
2018-05-23 16:00:00 24.1 9 Este 19 Este 0 -- -- 53
2018-05-23 15:00:00 24.2 0 Calma 10 Sudoeste 0 -- -- 58
2018-05-23 14:00:00 25.5 0 Calma 10 Sudeste 0 -- -- 47
2018-05-23 13:00:00 27 2 Sur 10 Sudeste 0 -- -- 43
2018-05-23 12:00:00 25.5 3 Nordeste 10 Nordeste 0 -- -- 48
2018-05-23 11:00:00 22.1 3 Norte 10 Este 0 -- -- 58
2018-05-23 10:00:00 19.2 3 Sudeste 9 Nordeste 0 -- -- 66
2018-05-23 09:00:00 17.2 6 Este 11 Nordeste 0 -- -- 74
2018-05-23 08:00:00 15.4 0 Calma 4 Nordeste 0 -- -- 78
2018-05-23 07:00:00 14.9 0 Calma 4 Oeste 0 -- -- 76
2018-05-23 06:00:00 15.5 0 Calma 7 Norte 0 -- -- 74
2018-05-23 05:00:00 16.5 3 Nordeste 8 Nordeste 0 -- -- 69
2018-05-23 04:00:00 17 4 Norte 8 Nordeste 0 -- -- 66
2018-05-23 03:00:00 17.9 0 Calma 4 Norte 0 -- -- 63
2018-05-23 02:00:00 18.5 0 Calma 4 Oeste 0 -- -- 61
2018-05-23 01:00:00 18.9 0 Calma 3 Sudeste 0 -- -- 59
2018-05-23 00:00:00 20.4 0 Calma 9 Oeste 0 -- -- 53
2018-05-22 23:00:00 21.5 3 Oeste 11 Oeste 0 -- -- 50
2018-05-22 22:00:00 22.5 4 Oeste 11 Oeste 0 -- -- 46
2018-05-22 21:00:00 24.4 3 Sudoeste 16 Oeste 0 -- -- 41
2018-05-22 20:00:00 26.8 3 Sudoeste 13 Oeste 0 -- -- 36
2018-05-22 19:00:00 27.4 4 Sudoeste 13 Sudoeste 0 -- -- 34
2018-05-22 18:00:00 28.8 4 Sudoeste 15 Noroeste 0 -- -- 34
2018-05-22 17:00:00 28.9 5 Noroeste 13 Noroeste 0 -- -- 34
2018-05-22 16:00:00 27.9 4 Oeste 12 Noroeste 0 -- -- 38
2018-05-22 15:00:00 26.6 3 Sur 11 Nordeste 0 -- -- 42
2018-05-22 14:00:00 25.1 2 Sudoeste 10 Oeste 0 -- -- 52
2018-05-22 13:00:00 23.4 3 Nordeste 12 Este 0 -- -- 55
2018-05-22 12:00:00 21.6 4 Este 13 Sudeste 0 -- -- 61
2018-05-22 11:00:00 17.5 2 Norte 6 Nordeste 0 -- -- 76
2018-05-22 10:00:00 16.4 0 Calma 7 Oeste 0 -- -- 79
2018-05-22 09:00:00 15.2 2 Oeste 6 Sudoeste 0 -- -- 86
2018-05-22 08:00:00 15 2 Sudoeste 6 Sudoeste 0 -- -- 87
2018-05-22 07:00:00 14.8 0 Calma 5 Sudoeste 0 -- -- 86
2018-05-22 06:00:00 15.4 0 Calma 4 Sur 0 -- -- 82
2018-05-22 05:00:00 15.1 0 Calma 3 Sur 0 -- -- 83
2018-05-22 04:00:00 14.8 0 Calma 4 Sudeste 0 -- -- 82
2018-05-22 03:00:00 14 0 Calma 4 Oeste 0 -- -- 86
2018-05-22 02:00:00 14.6 0 Calma 4 Oeste 0 -- -- 84
2018-05-22 01:00:00 15.1 0 Calma 3 Sudoeste 0 -- -- 82
2018-05-22 00:00:00 16 0 Calma 6 Oeste 0 -- -- 77
2018-05-21 23:00:00 17.3 0 Calma 7 Sudoeste 0 -- -- 71
2018-05-21 22:00:00 18.1 2 Sudoeste 11 Sudoeste 0 -- -- 65
2018-05-21 21:00:00 19.7 3 Sudoeste 15 Sudoeste 0 -- -- 59
2018-05-21 20:00:00 21.2 5 Sudoeste 16 Sudoeste 0 -- -- 53
2018-05-21 19:00:00 23.1 5 Sudoeste 20 Sudeste 0 -- -- 49
2018-05-21 18:00:00 25 9 Sudoeste 25 Noroeste 0 -- -- 42
2018-05-21 17:00:00 25.3 5 Sudoeste 24 Oeste 0 -- -- 41
2018-05-21 16:00:00 25.1 6 Sudoeste 21 Oeste 0 -- -- 42
2018-05-21 15:00:00 24.8 5 Sudoeste 18 Sudoeste 0 -- -- 44
2018-05-21 14:00:00 23.5 6 Sudoeste 17 Sudoeste 0 -- -- 47
2018-05-21 13:00:00 22.3 4 Sudoeste 13 Noroeste 0 -- -- 48
2018-05-21 12:00:00 20.1 3 Noroeste 7 Sudoeste 0 -- -- 62
2018-05-21 11:00:00 18.2 0 Calma 5 Sudeste 0 -- -- 69
2018-05-21 10:00:00 17.4 0 Calma 7 Este 0 -- -- 75
2018-05-21 09:00:00 16 3 Nordeste 5 Este 0 -- -- 83
2018-05-21 08:00:00 14.7 0 Calma 5 Nordeste 0 -- -- 88
2018-05-21 07:00:00 14.7 3 Norte 8 Nordeste 0 -- -- 87
2018-05-21 06:00:00 14.8 4 Nordeste 9 Nordeste 0 -- -- 87
2018-05-21 05:00:00 14.7 0 Calma 6 Nordeste 0 -- -- 88
2018-05-21 04:00:00 14.6 0 Calma 4 Este 0 -- -- 90
2018-05-21 03:00:00 15.1 0 Calma 4 Noroeste 0 -- -- 87
2018-05-21 02:00:00 15.7 0 Calma 6 Sudeste 0 -- -- 80
2018-05-21 01:00:00 16.1 2 Este 8 Norte 0 -- -- 72
2018-05-21 00:00:00 16.1 0 Calma 4 Sudoeste 0 -- -- 73
2018-05-20 23:00:00 16.6 2 Sudoeste 24 Noroeste 0 -- -- 69
2018-05-20 22:00:00 17 5 Oeste 17 Oeste 0 -- -- 68
2018-05-20 21:00:00 17.9 5 Sudoeste 21 Oeste 0 -- -- 61
2018-05-20 20:00:00 19.3 7 Sudoeste 30 Sudoeste 0 -- -- 58
2018-05-20 19:00:00 20.5 8 Oeste 20 Oeste 0 -- -- 51
2018-05-20 18:00:00 24.4 3 Sur 20 Sudeste 0 -- -- 44
2018-05-20 17:00:00 27.7 3 Sur 14 Sur 0 -- -- 35
2018-05-20 16:00:00 26.9 4 Sur 15 Oeste 0 -- -- 40
2018-05-20 15:00:00 25.7 3 Sur 10 Este 0 -- -- 44
2018-05-20 14:00:00 24.2 4 Sudeste 20 Nordeste 0 -- -- 48
2018-05-20 13:00:00 22 3 Sur 9 Noroeste 0 -- -- 54
2018-05-20 12:00:00 21.3 3 Nordeste 10 Este 0 -- -- 58
2018-05-20 11:00:00 18.1 0 Calma 6 Noroeste 0 -- -- 71
2018-05-20 10:00:00 16.8 2 Nordeste 5 Nordeste 0 -- -- 75
2018-05-20 09:00:00 15.1 0 Calma 6 Este 0 -- -- 80
2018-05-20 08:00:00 13.7 4 Nordeste 9 Nordeste 0 -- -- 84
2018-05-20 07:00:00 12.7 0 Calma 2 Nordeste 0 -- -- 88
2018-05-20 06:00:00 13.2 0 Calma 4 Oeste 0 -- -- 84
2018-05-20 05:00:00 13.7 0 Calma 4 Este 0 -- -- 83
2018-05-20 04:00:00 14.9 0 Calma 13 Oeste 0 -- -- 78
2018-05-20 03:00:00 15.9 7 Oeste 14 Oeste 0 -- -- 74
2018-05-20 02:00:00 15.9 5 Oeste 9 Oeste 0 -- -- 75
2018-05-20 01:00:00 16.6 5 Oeste 10 Oeste 0 -- -- 73
2018-05-20 00:00:00 17.4 3 Sudoeste 15 Sudoeste 0 -- -- 69
2018-05-19 23:00:00 18.4 4 Sudoeste 22 Oeste 0 -- -- 66
2018-05-19 22:00:00 19.4 3 Sudoeste 33 Oeste 0 -- -- 53
2018-05-19 21:00:00 20.2 13 Oeste 22 Oeste 0 -- -- 52
2018-05-19 20:00:00 21.9 4 Noroeste 21 Oeste 0 -- -- 51
2018-05-19 19:00:00 23.7 5 Noroeste 19 Oeste 0 -- -- 47
2018-05-19 18:00:00 26.5 6 Noroeste 18 Oeste 0 -- -- 41
2018-05-19 17:00:00 28 8 Norte 19 Nordeste 0 -- -- 37
2018-05-19 16:00:00 26.4 3 Norte 21 Norte 0 -- -- 38
2018-05-19 15:00:00 23.1 10 Norte 30 Nordeste 0 -- -- 61
2018-05-19 14:00:00 26.1 6 Este 18 Este 0 -- -- 41
2018-05-19 13:00:00 24.8 4 Sudeste 16 Nordeste 0 -- -- 47
2018-05-19 12:00:00 23.1 4 Sudeste 14 Este 0 -- -- 52
2018-05-19 11:00:00 19.9 5 Sudeste 11 Este 0 -- -- 61
2018-05-19 10:00:00 17.6 4 Sudeste 10 Este 0 -- -- 69
2018-05-19 09:00:00 15.6 0 Calma 14 Nordeste 0 -- -- 77
2018-05-19 08:00:00 14.7 9 Nordeste 15 Nordeste 0 -- -- 82
2018-05-19 07:00:00 14.1 0 Calma 2 Sudeste 0 -- -- 83
2018-05-19 06:00:00 15.3 0 Calma 7 Este 0 -- -- 77
2018-05-19 05:00:00 16.3 3 Nordeste 8 Este 0 -- -- 73
2018-05-19 04:00:00 16.5 3 Este 7 Nordeste 0 -- -- 72
2018-05-19 03:00:00 17.7 0 Calma 9 Nordeste 0 -- -- 66
2018-05-19 02:00:00 18.2 6 Nordeste 12 Nordeste 0 -- -- 64
2018-05-19 01:00:00 18.2 2 Oeste 4 Oeste 0 -- -- 59
2018-05-19 00:00:00 18.2 0 Calma 4 Noroeste 0 -- -- 58
2018-05-18 23:00:00 18.8 0 Calma 9 Sudeste 0 -- -- 55
2018-05-18 22:00:00 19.7 0 Calma 14 Sudeste 0 -- -- 53
2018-05-18 21:00:00 21.2 6 Sudeste 17 Sudeste 0 -- -- 51
2018-05-18 20:00:00 23.4 11 Este 22 Este 0 -- -- 47
2018-05-18 19:00:00 24.7 4 Este 14 Nordeste 0 -- -- 39
2018-05-18 18:00:00 26.2 9 Este 28 Este 0 -- -- 39
2018-05-18 17:00:00 24.7 6 Noroeste 25 Noroeste 0 -- -- 43
2018-05-18 16:00:00 25.4 6 Noroeste 23 Noroeste 0 -- -- 48
2018-05-18 15:00:00 22.5 9 Oeste 22 Noroeste 0 -- -- 52
2018-05-18 14:00:00 21.7 11 Oeste 26 Oeste 0 -- -- 57
2018-05-18 13:00:00 21.3 7 Noroeste 17 Noroeste 0 -- -- 57
2018-05-18 12:00:00 20.4 6 Noroeste 16 Oeste 0 -- -- 61
2018-05-18 11:00:00 18.3 4 Oeste 12 Oeste 0 -- -- 68
2018-05-18 10:00:00 18.4 0 Calma 8 Sudeste 0 -- -- 66
2018-05-18 09:00:00 17 0 Calma 4 Este 0 -- -- 73
2018-05-18 08:00:00 16.3 0 Calma 15 Oeste 0 -- -- 71
2018-05-18 07:00:00 16.2 4 Oeste 17 Oeste 0 -- -- 69
2018-05-18 06:00:00 16.5 10 Oeste 24 Oeste 0 -- -- 66
2018-05-18 05:00:00 17.1 13 Oeste 22 Noroeste 0 -- -- 64
2018-05-18 04:00:00 17.4 3 Oeste 9 Noroeste 0 -- -- 62
2018-05-18 03:00:00 18.3 0 Calma 14 Oeste 0 -- -- 62
2018-05-18 02:00:00 19.2 6 Oeste 12 Oeste 0 -- -- 58
2018-05-18 01:00:00 19.9 2 Oeste 11 Oeste 0 -- -- 54
2018-05-18 00:00:00 19.4 2 Sudoeste 10 Este 0 -- -- 46
2018-05-17 23:00:00 20.3 0 Calma 9 Este 0 -- -- 39
2018-05-17 22:00:00 22.4 7 Sudeste 24 Sudeste 0 -- -- 35
2018-05-17 21:00:00 24.2 10 Sudeste 26 Sudeste 0 -- -- 33
2018-05-17 20:00:00 27.5 8 Sudeste 18 Este 0 -- -- 29
2018-05-17 19:00:00 28.8 4 Este 19 Este 0 -- -- 28
2018-05-17 18:00:00 30.4 5 Este 23 Este 0 -- -- 28
2018-05-17 17:00:00 29.4 9 Este 23 Este 0 -- -- 28
2018-05-17 16:00:00 29.6 5 Sudeste 19 Este 0 -- -- 30
2018-05-17 15:00:00 28.4 7 Nordeste 18 Este 0 -- -- 28
2018-05-17 14:00:00 27.3 6 Este 17 Nordeste 0 -- -- 30
2018-05-17 13:00:00 25.5 7 Este 16 Este 0 -- -- 33
2018-05-17 12:00:00 24.1 10 Este 19 Sudeste 0 -- -- 35
2018-05-17 11:00:00 21 8 Este 22 Sudeste 0 -- -- 42
2018-05-17 10:00:00 18.5 11 Este 19 Este 0 -- -- 48
2018-05-17 09:00:00 15.6 9 Nordeste 16 Nordeste 0 -- -- 55
2018-05-17 08:00:00 14.1 5 Nordeste 18 Este 0 -- -- 56
2018-05-17 07:00:00 14.8 10 Nordeste 22 Este 0 -- -- 51
2018-05-17 06:00:00 15.2 3 Nordeste 12 Este 0 -- -- 50
2018-05-17 05:00:00 16.3 5 Nordeste 19 Sudeste 0 -- -- 47
2018-05-17 04:00:00 17.2 8 Este 31 Este 0 -- -- 44
2018-05-17 03:00:00 16.9 8 Nordeste 18 Nordeste 0 -- -- 45
2018-05-17 02:00:00 17.9 11 Nordeste 21 Nordeste 0 -- -- 44
2018-05-17 01:00:00 18.9 8 Este 16 Este 0 -- -- 41
2018-05-17 00:00:00 20.1 8 Este 19 Este 0 -- -- 39
2018-05-16 23:00:00 21.8 10 Este 23 Este 0 -- -- 36
2018-05-16 22:00:00 23.4 9 Este 24 Este 0 -- -- 34
2018-05-16 21:00:00 25.8 7 Nordeste 19 Este 0 -- -- 30
2018-05-16 20:00:00 29.3 8 Este 16 Este 0 -- -- 25
2018-05-16 19:00:00 30.8 11 Nordeste 22 Este 0 -- -- 25
2018-05-16 18:00:00 29.8 7 Nordeste 22 Este 0 -- -- 27
2018-05-16 17:00:00 30.6 8 Este 23 Este 0 -- -- 27
2018-05-16 16:00:00 30.8 7 Nordeste 21 Este 0 -- -- 27
2018-05-16 15:00:00 29.6 8 Sudeste 24 Este 0 -- -- 28
2018-05-16 14:00:00 28.3 6 Este 23 Este 0 -- -- 33
2018-05-16 13:00:00 27.7 10 Este 22 Este 0 -- -- 34
2018-05-16 12:00:00 25.5 8 Este 19 Sudeste 0 -- -- 38
2018-05-16 11:00:00 22 11 Este 21 Este 0 -- -- 44
2018-05-16 10:00:00 18.3 5 Este 15 Nordeste 0 -- -- 55
2018-05-16 09:00:00 15.9 6 Nordeste 12 Nordeste 0 -- -- 62
2018-05-16 08:00:00 14.4 6 Nordeste 13 Nordeste 0 -- -- 63
2018-05-16 07:00:00 14.5 8 Nordeste 13 Nordeste 0 -- -- 60
2018-05-16 06:00:00 15.1 8 Nordeste 15 Nordeste 0 -- -- 57
2018-05-16 05:00:00 15.4 7 Nordeste 13 Nordeste 0 -- -- 56
2018-05-16 04:00:00 15.3 7 Nordeste 12 Nordeste 0 -- -- 55
2018-05-16 03:00:00 15.8 0 Calma 5 Oeste 0 -- -- 55
2018-05-16 02:00:00 16.7 3 Nordeste 8 Nordeste 0 -- -- 50
2018-05-16 01:00:00 18.1 5 Nordeste 10 Nordeste 0 -- -- 46
2018-05-16 00:00:00 19.7 4 Nordeste 12 Norte 0 -- -- 41
2018-05-15 23:00:00 20.5 5 Norte 10 Nordeste 0 -- -- 40
2018-05-15 22:00:00 21.7 5 Norte 10 Norte 0 -- -- 36
2018-05-15 21:00:00 23.7 4 Norte 14 Norte 0 -- -- 32
2018-05-15 20:00:00 26.7 7 Norte 18 Noroeste 0 -- -- 27
2018-05-15 19:00:00 28 9 Norte 22 Norte 0 -- -- 26
2018-05-15 18:00:00 29.5 6 Norte 18 Norte 0 -- -- 23
2018-05-15 17:00:00 29.2 4 Noroeste 19 Sudeste 0 -- -- 24
2018-05-15 16:00:00 29.2 8 Nordeste 21 Nordeste 0 -- -- 26
2018-05-15 15:00:00 27.7 4 Este 20 Nordeste 0 -- -- 28
2018-05-15 14:00:00 26.6 7 Nordeste 19 Nordeste 0 -- -- 29
2018-05-15 13:00:00 24.7 6 Nordeste 17 Sudeste 0 -- -- 31
2018-05-15 12:00:00 23.3 6 Este 21 Nordeste 0 -- -- 34
2018-05-15 11:00:00 19.3 6 Este 14 Nordeste 0 -- -- 44
2018-05-15 10:00:00 16.2 9 Nordeste 20 Nordeste 0 -- -- 50
2018-05-15 09:00:00 13.8 7 Nordeste 17 Este 0 -- -- 55
2018-05-15 08:00:00 12.4 6 Nordeste 18 Nordeste 0 -- -- 59
2018-05-15 07:00:00 12.1 6 Nordeste 13 Este 0 -- -- 60
2018-05-15 06:00:00 12.7 5 Nordeste 13 Nordeste 0 -- -- 59
2018-05-15 05:00:00 13.8 7 Nordeste 17 Nordeste 0 -- -- 55
2018-05-15 04:00:00 14.3 10 Nordeste 17 Nordeste 0 -- -- 53
2018-05-15 03:00:00 14.3 5 Nordeste 10 Nordeste 0 -- -- 55
2018-05-15 02:00:00 14.8 5 Nordeste 10 Nordeste 0 -- -- 54
2018-05-15 01:00:00 15.9 5 Nordeste 16 Nordeste 0 -- -- 50
2018-05-15 00:00:00 17 7 Nordeste 14 Nordeste 0 -- -- 46
2018-05-14 23:00:00 17.9 6 Nordeste 14 Nordeste 0 -- -- 46
2018-05-14 22:00:00 19.2 6 Nordeste 13 Nordeste 0 -- -- 43
2018-05-14 21:00:00 21.3 6 Nordeste 24 Nordeste 0 -- -- 37
2018-05-14 20:00:00 23.8 8 Nordeste 25 Nordeste 0 -- -- 34
2018-05-14 19:00:00 26.7 12 Nordeste 22 Este 0 -- -- 30
2018-05-14 18:00:00 25.4 7 Norte 21 Nordeste 0 -- -- 32
2018-05-14 17:00:00 26.5 8 Norte 21 Este 0 -- -- 32
2018-05-14 16:00:00 26 4 Este 18 Nordeste 0 -- -- 32
2018-05-14 15:00:00 25.5 6 Norte 21 Este 0 -- -- 31
2018-05-14 14:00:00 23.6 6 Este 22 Este 0 -- -- 35
2018-05-14 13:00:00 22.8 5 Nordeste 16 Este 0 -- -- 37
2018-05-14 12:00:00 21.1 8 Este 21 Sudeste 0 -- -- 41
2018-05-14 11:00:00 17.5 10 Este 20 Este 0 -- -- 47
2018-05-14 10:00:00 14.2 6 Sudeste 17 Este 0 -- -- 53
2018-05-14 09:00:00 11.3 5 Este 10 Sudeste 0 -- -- 62
2018-05-14 08:00:00 9.4 0 Calma 5 Sur 0 -- -- 68
2018-05-14 07:00:00 9.6 0 Calma 4 Este 0 -- -- 65
2018-05-14 06:00:00 10.3 2 Nordeste 8 Nordeste 0 -- -- 60
2018-05-14 05:00:00 10.3 0 Calma 9 Nordeste 0 -- -- 63
2018-05-14 04:00:00 10.9 0 Calma 2 Oeste 0 -- -- 58
2018-05-14 03:00:00 12.3 0 Calma 9 Norte 0 -- -- 54
2018-05-14 02:00:00 13.3 0 Calma 13 Norte 0 -- -- 50
2018-05-14 01:00:00 15.1 5 Norte 15 Norte 0 -- -- 42
2018-05-11 20:00:00 -- -- -- -- -- -- -- -- --
2018-05-11 19:00:00 -- -- -- -- -- -- -- -- --
2018-05-11 18:00:00 -- -- -- -- -- -- -- -- --
2018-05-11 17:00:00 26.9 10 Oeste 23 Oeste 0 -- -- 43
2018-05-11 16:00:00 26.3 6 Oeste 19 Noroeste 0 -- -- 43
2018-05-11 15:00:00 25.5 6 Sudoeste 19 Oeste 0 -- -- 44
2018-05-11 14:00:00 23.8 6 Oeste 14 Sudoeste 0 -- -- 50
2018-05-11 13:00:00 22.2 4 Oeste 11 Sudoeste 0 -- -- 57
2018-05-11 12:00:00 20.3 3 Oeste 10 Oeste 0 -- -- 62
2018-05-11 11:00:00 17.5 3 Oeste 6 Sudeste 0 -- -- 71
2018-05-11 10:00:00 15.1 4 Este 8 Este 0 -- -- 81
2018-05-11 09:00:00 13.4 0 Calma 5 Este 0 -- -- 87
2018-05-11 08:00:00 12.2 3 Nordeste 6 Este 0 -- -- 91
2018-05-11 07:00:00 11.7 0 Calma 2 Sudeste 0 -- -- 91
2018-05-11 06:00:00 12.2 0 Calma 3 Noroeste 0 -- -- 90
2018-05-11 05:00:00 12.9 0 Calma 4 Sudoeste 0 -- -- 87
2018-05-11 04:00:00 13.5 0 Calma 6 Oeste 0 -- -- 84
2018-05-11 03:00:00 14.6 0 Calma 15 Sudoeste 0 -- -- 79
2018-05-11 02:00:00 15.7 4 Sudoeste 14 Oeste 0 -- -- 74
2018-05-11 01:00:00 16.6 3 Sudoeste 9 Oeste 0 -- -- 73
2018-05-11 00:00:00 17.7 4 Oeste 8 Noroeste 0 -- -- 70
2018-05-10 23:00:00 18.4 0 Calma 4 Sudoeste 0 -- -- 73
2018-05-10 22:00:00 18.8 0 Calma 2 Sur 0 -- -- 71
2018-05-10 21:00:00 20.5 0 Calma 11 Sudoeste 0 -- -- 65
2018-05-10 20:00:00 22.9 3 Sudoeste 14 Sudoeste 0 -- -- 57
2018-05-10 19:00:00 23.8 4 Sudoeste 17 Oeste 0 -- -- 54
2018-05-10 18:00:00 24.8 4 Sudoeste 13 Noroeste 0 -- -- 53
2018-05-10 17:00:00 24.4 5 Sudoeste 14 Sur 0 -- -- 54
2018-05-10 16:00:00 22.6 4 Sudoeste 10 Oeste 0 -- -- 61
2018-05-10 15:00:00 20.8 4 Sudoeste 10 Sudoeste 0 -- -- 66
2018-05-10 14:00:00 19.6 3 Sudoeste 13 Sudoeste 0 -- -- 68
2018-05-10 13:00:00 19.1 4 Sudoeste 12 Noroeste 0 -- -- 71
2018-05-10 12:00:00 18 4 Sudoeste 13 Oeste 0 -- -- 77
2018-05-10 11:00:00 16.2 3 Sudoeste 13 Sudoeste 0 -- -- 83
2018-05-10 10:00:00 15 4 Oeste 16 Oeste 0 -- -- 89
2018-05-10 09:00:00 14.8 3 Sudoeste 10 Sudoeste 0 -- -- 90
2018-05-10 08:00:00 14.8 3 Sudoeste 16 Sudoeste 0 -- -- 90
2018-05-10 07:00:00 15.2 3 Sudoeste 15 Noroeste 0 -- -- 88
2018-05-10 06:00:00 15.3 4 Sudoeste 13 Oeste 0 -- -- 88
2018-05-10 05:00:00 15.6 5 Sudoeste 17 Oeste 0 -- -- 86
2018-05-10 04:00:00 16 4 Sudoeste 16 Oeste 0 -- -- 85
2018-05-10 03:00:00 16.2 4 Sudoeste 22 Sudoeste 0 -- -- 84
2018-05-10 02:00:00 16.7 5 Sudoeste 21 Sudoeste 0 -- -- 83
2018-05-10 01:00:00 17.2 5 Sudoeste 19 Sudoeste 0 -- -- 83
2018-05-10 00:00:00 17.5 5 Sudoeste 17 Sudoeste 0 -- -- 83
2018-05-09 23:00:00 17.6 5 Sudoeste 20 Oeste 0 -- -- 82
2018-05-09 22:00:00 18.1 6 Sudoeste 27 Sudoeste 0 -- -- 79
2018-05-09 21:00:00 19.2 7 Sudoeste 22 Oeste 0 -- -- 74
2018-05-09 20:00:00 20.5 6 Sudoeste 24 Oeste 0 -- -- 69
2018-05-09 19:00:00 21.4 7 Sudoeste 25 Oeste 0 -- -- 65
2018-05-09 18:00:00 21.3 9 Sudoeste 26 Oeste 0 -- -- 67
2018-05-09 17:00:00 22.2 8 Sudoeste 25 Oeste 0 -- -- 64
2018-05-09 16:00:00 22.3 7 Sudoeste 18 Sudoeste 0 -- -- 65
2018-05-09 15:00:00 19.9 5 Sudoeste 20 Oeste 0 -- -- 72
2018-05-09 14:00:00 18.8 4 Sudoeste 15 Noroeste 0 -- -- 76
2018-05-09 13:00:00 17.2 3 Sudoeste 13 Oeste 0 -- -- 83
2018-05-09 12:00:00 16.4 3 Sudoeste 12 Oeste 0 -- -- 86
2018-05-09 11:00:00 16 4 Sudoeste 13 Sudoeste 0 -- -- 86
2018-05-09 10:00:00 15.9 4 Sudoeste 13 Sudoeste 0 -- -- 88
2018-05-09 09:00:00 15.3 3 Sudoeste 12 Sudoeste 0 -- -- 90
2018-05-09 08:00:00 15.4 3 Sudoeste 11 Sudoeste 0 -- -- 91
2018-05-09 07:00:00 15.2 0 Calma 6 Oeste 0 -- -- 91
2018-05-09 06:00:00 15.5 0 Calma 8 Noroeste 0 -- -- 90
2018-05-09 05:00:00 15.2 0 Calma 6 Nordeste 0 -- -- 89
2018-05-09 04:00:00 16 4 Nordeste 8 Nordeste 0 -- -- 86
2018-05-09 03:00:00 16.3 4 Nordeste 9 Nordeste 0 -- -- 84
2018-05-09 02:00:00 17.1 3 Sudeste 7 Sudeste 0 -- -- 80
2018-05-09 01:00:00 17.4 0 Calma 5 Nordeste 0 -- -- 81
2018-05-09 00:00:00 17.9 2 Noroeste 10 Oeste 0 -- -- 79
2018-05-08 23:00:00 18.4 3 Sudoeste 17 Este 0 -- -- 77
2018-05-08 22:00:00 20.9 8 Nordeste 19 Este 0 -- -- 69
2018-05-08 21:00:00 21.9 3 Noroeste 8 Oeste 0 -- -- 68
2018-05-08 20:00:00 22.5 0 Calma 13 Noroeste 0 -- -- 64
2018-05-08 19:00:00 22.9 4 Noroeste 13 Noroeste 0 -- -- 56
2018-05-08 18:00:00 23 3 Oeste 21 Norte 0 -- -- 57
2018-05-08 17:00:00 24.8 6 Oeste 14 Oeste 0 -- -- 50
2018-05-08 16:00:00 26.8 5 Sudoeste 18 Noroeste 0 -- -- 47
2018-05-08 15:00:00 24.8 4 Sudoeste 14 Oeste 0 -- -- 53
2018-05-08 14:00:00 23.8 4 Sudoeste 14 Noroeste 0 -- -- 55
2018-05-08 13:00:00 22 5 Sudoeste 14 Oeste 0 -- -- 58
2018-05-08 12:00:00 19.9 4 Sudoeste 14 Sudoeste 0 -- -- 65
2018-05-08 11:00:00 17.9 6 Oeste 15 Sudoeste 0 -- -- 69
2018-05-08 10:00:00 16.1 3 Sudoeste 11 Noroeste 0 -- -- 78
2018-05-08 09:00:00 14.5 5 Oeste 12 Oeste 0 -- -- 85
2018-05-08 08:00:00 13.4 2 Oeste 6 Oeste 0 -- -- 89
2018-05-08 07:00:00 13.8 0 Calma 10 Oeste 0 -- -- 86
2018-05-08 06:00:00 14.4 3 Sudoeste 12 Sudoeste 0 -- -- 84
2018-05-08 05:00:00 15.2 4 Sudoeste 13 Oeste 0 -- -- 82
2018-05-08 04:00:00 14.8 0 Calma 8 Sudoeste 0 -- -- 81
2018-05-08 03:00:00 15 0 Calma 5 Sudoeste 0 -- -- 75
2018-05-08 02:00:00 15.3 2 Sudeste 5 Este 0 -- -- 74
2018-05-08 01:00:00 16.7 3 Noroeste 6 Noroeste 0 -- -- 70
2018-05-08 00:00:00 17.2 0 Calma 6 Sur 0 -- -- 65
2018-05-07 23:00:00 18.6 0 Calma 8 Noroeste 0 -- -- 61
2018-05-07 22:00:00 19.5 2 Noroeste 12 Noroeste 0 -- -- 54
2018-05-07 21:00:00 20.5 2 Oeste 32 Sudeste 0 -- -- 49
2018-05-07 20:00:00 25.4 8 Oeste 23 Oeste 0 -- -- 44
2018-05-07 19:00:00 24.6 9 Oeste 24 Oeste 0 -- -- 44
2018-05-07 18:00:00 27.9 6 Oeste 17 Noroeste 0 -- -- 36
2018-05-07 17:00:00 28 3 Sudoeste 14 Oeste 0 -- -- 36
2018-05-07 16:00:00 28 6 Norte 18 Norte 0 -- -- 35
2018-05-07 15:00:00 25.5 9 Noroeste 26 Norte 0 -- -- 44
2018-05-07 14:00:00 27.2 6 Nordeste 18 Este 0 -- -- 37
2018-05-07 13:00:00 25.4 5 Este 16 Sudeste 0 -- -- 43
2018-05-07 12:00:00 22.8 5 Este 16 Este 0 -- -- 52
2018-05-07 11:00:00 19.3 4 Sudeste 15 Este 0 -- -- 59
2018-05-07 10:00:00 16.9 6 Este 14 Nordeste 0 -- -- 71
2018-05-07 09:00:00 15.1 8 Nordeste 16 Nordeste 0 -- -- 75
2018-05-07 08:00:00 14.1 7 Nordeste 17 Nordeste 0 -- -- 77
2018-05-07 07:00:00 13.8 6 Nordeste 12 Nordeste 0 -- -- 78
2018-05-07 06:00:00 14.3 4 Nordeste 17 Nordeste 0 -- -- 75
2018-05-07 05:00:00 15.2 8 Nordeste 16 Nordeste 0 -- -- 72
2018-05-07 04:00:00 15.4 6 Nordeste 17 Nordeste 0 -- -- 72
2018-05-07 03:00:00 16 5 Norte 12 Nordeste 0 -- -- 71
2018-05-07 02:00:00 16.1 2 Norte 15 Nordeste 0 -- -- 72
2018-05-07 01:00:00 15.4 6 Nordeste 13 Este 0 -- -- 76
2018-05-07 00:00:00 15.4 3 Nordeste 14 Nordeste 0 -- -- 78
2018-05-06 23:00:00 15.9 4 Nordeste 7 Nordeste 0 -- -- 75
2018-05-06 22:00:00 16.2 0 Calma 3 Este 0 -- -- 83
2018-05-06 21:00:00 17.2 2 Nordeste 9 Este 0 -- -- 77
2018-05-06 20:00:00 17.1 0 Calma 9 Oeste 0 -- -- 82
2018-05-06 19:00:00 17 0 Calma 29 Sudeste 0 -- -- 77
2018-05-06 18:00:00 27.2 5 Nordeste 20 Este 0 -- -- 38
2018-05-06 17:00:00 28.6 8 Nordeste 24 Nordeste 0 -- -- 36
2018-05-06 16:00:00 27.3 12 Nordeste 25 Nordeste 0 -- -- 37
2018-05-06 15:00:00 25 10 Nordeste 23 Nordeste 0 -- -- 45
2018-05-06 14:00:00 22.9 9 Nordeste 22 Nordeste 0 -- -- 52
2018-05-06 13:00:00 21.6 11 Nordeste 23 Nordeste 0 -- -- 57
2018-05-06 12:00:00 19.7 12 Nordeste 22 Nordeste 0 -- -- 64
2018-05-06 11:00:00 18.2 9 Este 21 Este 0 -- -- 70
2018-05-06 10:00:00 16.5 4 Nordeste 14 Nordeste 0 -- -- 81
2018-05-06 09:00:00 15.9 7 Este 15 Este 0 -- -- 81
2018-05-06 08:00:00 15.9 6 Este 22 Nordeste 0 -- -- 77
2018-05-06 07:00:00 16.2 9 Este 24 Nordeste 0 -- -- 74
2018-05-06 06:00:00 16.6 13 Nordeste 26 Nordeste 0 -- -- 71
2018-05-06 05:00:00 17 10 Nordeste 16 Nordeste 0 -- -- 70
2018-05-06 04:00:00 17.2 6 Nordeste 14 Nordeste 0 -- -- 66
2018-05-06 03:00:00 17.4 5 Nordeste 14 Nordeste 0 -- -- 67
2018-05-06 02:00:00 17.8 6 Nordeste 17 Este 0 -- -- 66
2018-05-06 01:00:00 18.6 6 Nordeste 18 Nordeste 0 -- -- 63
2018-05-06 00:00:00 19 6 Nordeste 12 Este 0 -- -- 65
2018-05-05 23:00:00 19 5 Nordeste 13 Este 0 -- -- 61
2018-05-05 22:00:00 19.5 6 Este 12 Este 0 -- -- 59
2018-05-05 21:00:00 20.6 12 Sudeste 32 Nordeste 0 -- -- 53
2018-05-05 20:00:00 24.4 8 Sudeste 21 Sudeste 0 -- -- 44
2018-05-05 19:00:00 27.8 4 Oeste 15 Noroeste 0 -- -- 34
2018-05-05 18:00:00 27.9 5 Noroeste 14 Norte 0 -- -- 34
2018-05-05 17:00:00 28.8 4 Este 13 Este 0 -- -- 31
2018-05-05 16:00:00 29.1 6 Este 17 Este 0 -- -- 31
2018-05-05 15:00:00 26.5 3 Sur 12 Este 0 -- -- 33
2018-05-05 14:00:00 24.9 3 Sur 12 Sudeste 0 -- -- 41
2018-05-05 13:00:00 22.7 3 Noroeste 9 Oeste 0 -- -- 44
2018-05-05 12:00:00 20 4 Noroeste 11 Sudoeste 0 -- -- 54
2018-05-05 11:00:00 17.5 3 Sudoeste 8 Sudoeste 0 -- -- 65
2018-05-05 10:00:00 15.8 3 Sudoeste 8 Noroeste 0 -- -- 72
2018-05-05 09:00:00 14.8 3 Sudoeste 9 Oeste 0 -- -- 75
2018-05-05 08:00:00 13.8 0 Calma 5 Sudoeste 0 -- -- 77
2018-05-05 07:00:00 13.9 0 Calma 6 Oeste 0 -- -- 78
2018-05-05 06:00:00 14.1 0 Calma 6 Oeste 0 -- -- 76
2018-05-05 05:00:00 14.5 2 Sudoeste 10 Oeste 0 -- -- 74
2018-05-05 04:00:00 14.6 3 Sudoeste 11 Sudoeste 0 -- -- 73
2018-05-05 03:00:00 14.6 2 Sudoeste 9 Sudoeste 0 -- -- 71
2018-05-05 02:00:00 14.9 3 Sudoeste 9 Oeste 0 -- -- 67
2018-05-05 01:00:00 15.7 3 Oeste 15 Noroeste 0 -- -- 63
2018-05-05 00:00:00 16.3 3 Oeste 10 Sudoeste 0 -- -- 55
2018-05-04 23:00:00 17.1 3 Oeste 9 Noroeste 0 -- -- 47
2018-05-04 22:00:00 18.8 3 Oeste 11 Norte 0 -- -- 42
2018-05-04 21:00:00 21 2 Noroeste 9 Oeste 0 -- -- 36
2018-05-04 20:00:00 23.8 4 Noroeste 12 Norte 0 -- -- 30
2018-05-04 19:00:00 24.7 4 Sudoeste 14 Oeste 0 -- -- 29
2018-05-04 18:00:00 26.3 3 Sudoeste 14 Nordeste 0 -- -- 28
2018-05-04 17:00:00 26.4 6 Nordeste 14 Nordeste 0 -- -- 28
2018-05-04 16:00:00 24.9 4 Noroeste 15 Norte 0 -- -- 30
2018-05-04 15:00:00 24.4 6 Norte 21 Norte 0 -- -- 31
2018-05-04 14:00:00 24 8 Este 20 Nordeste 0 -- -- 34
2018-05-04 13:00:00 22.2 7 Nordeste 21 Este 0 -- -- 35
2018-05-04 12:00:00 19.6 11 Nordeste 22 Este 0 -- -- 43
2018-05-04 11:00:00 16 9 Nordeste 17 Nordeste 0 -- -- 51
2018-05-04 10:00:00 13.5 10 Nordeste 22 Norte 0 -- -- 55
2018-05-04 09:00:00 11.3 8 Nordeste 17 Este 0 -- -- 63
2018-05-04 08:00:00 10.5 4 Nordeste 10 Nordeste 0 -- -- 67
2018-05-04 07:00:00 11.5 4 Norte 10 Norte 0 -- -- 63
2018-05-04 06:00:00 12.6 3 Nordeste 13 Nordeste 0 -- -- 59
2018-05-04 05:00:00 13.5 6 Nordeste 12 Nordeste 0 -- -- 55
2018-05-04 04:00:00 13.6 5 Norte 13 Nordeste 0 -- -- 59
2018-05-04 03:00:00 13.6 0 Calma 5 Norte 0 -- -- 71
2018-05-04 02:00:00 14.6 0 Calma 4 Norte 0 -- -- 70
2018-05-04 01:00:00 15.8 2 Noroeste 6 Norte 0 -- -- 65
2018-05-04 00:00:00 16 0 Calma 2 Oeste 0 -- -- 65
2018-05-03 23:00:00 16.6 0 Calma 9 Noroeste 0 -- -- 63
2018-05-03 22:00:00 17.4 3 Noroeste 11 Norte 0 -- -- 57
2018-05-03 21:00:00 18.8 3 Noroeste 13 Norte 0 -- -- 52
2018-05-03 20:00:00 19.3 4 Noroeste 18 Norte 0 -- -- 51
2018-05-03 19:00:00 20.2 7 Noroeste 27 Oeste 0 -- -- 50
2018-05-03 18:00:00 23.4 15 Oeste 28 Oeste 0 -- -- 40
2018-05-03 17:00:00 23.1 4 Sudeste 18 Oeste 0 -- -- 41
2018-05-03 16:00:00 23.8 7 Oeste 18 Noroeste 0 -- -- 40
2018-05-03 15:00:00 23 3 Sur 12 Este 0 -- -- 42
2018-05-03 14:00:00 22.4 6 Nordeste 15 Norte 0 -- -- 41
2018-05-03 13:00:00 20.1 3 Norte 10 Sudeste 0 -- -- 43
2018-05-03 12:00:00 17.5 3 Noroeste 9 Oeste 0 -- -- 48
2018-05-03 11:00:00 14.2 4 Este 9 Este 0 -- -- 61
2018-05-03 10:00:00 12 0 Calma 5 Este 0 -- -- 70
2018-05-03 09:00:00 10.6 2 Nordeste 5 Este 0 -- -- 76
2018-05-03 08:00:00 8.7 0 Calma 3 Nordeste 0 -- -- 83
2018-05-03 07:00:00 8.8 0 Calma 3 Nordeste 0 -- -- 80
2018-05-03 06:00:00 10.1 0 Calma 6 Noroeste 0 -- -- 75
2018-05-03 05:00:00 10.5 2 Oeste 8 Noroeste 0 -- -- 73
2018-05-03 04:00:00 10.9 2 Oeste 6 Oeste 0 -- -- 72
2018-05-03 03:00:00 11 0 Calma 4 Sudoeste 0 -- -- 69
2018-05-03 02:00:00 10.9 0 Calma 2 Norte 0 -- -- 67
2018-05-03 01:00:00 11.3 0 Calma 5 Norte 0 -- -- 65
2018-05-03 00:00:00 12.8 4 Norte 9 Noroeste 0 -- -- 57
2018-05-02 23:00:00 13.6 2 Noroeste 11 Noroeste 0 -- -- 55
2018-05-02 22:00:00 14.3 2 Oeste 7 Oeste 0 -- -- 61
2018-05-02 21:00:00 16.7 4 Sudoeste 13 Sudoeste 0 -- -- 51
2018-05-02 20:00:00 17.7 3 Oeste 19 Noroeste 0 -- -- 48
2018-05-02 19:00:00 18 4 Sudoeste 19 Noroeste 0 -- -- 47
2018-05-02 18:00:00 18.5 3 Oeste 14 Sudoeste 0 -- -- 44
2018-05-02 17:00:00 19.7 4 Oeste 14 Oeste 0 -- -- 40
2018-05-02 16:00:00 21 7 Sudoeste 21 Noroeste 0 -- -- 39
2018-05-02 15:00:00 19.7 3 Sudoeste 14 Noroeste 0 -- -- 42
2018-05-02 14:00:00 17.6 3 Oeste 10 Sudoeste 0 -- -- 51
2018-05-02 13:00:00 15.7 4 Oeste 13 Oeste 0 -- -- 55
2018-05-02 12:00:00 13.9 2 Sudoeste 9 Sur 0 -- -- 66
2018-05-02 11:00:00 10.7 4 Norte 8 Norte 0 -- -- 76
2018-05-02 10:00:00 8.6 3 Este 8 Este 0 -- -- 85
2018-05-02 09:00:00 6.6 2 Nordeste 9 Nordeste 0 -- -- 94
2018-05-02 08:00:00 5.3 0 Calma 6 Nordeste 0 -- -- 94
2018-05-02 07:00:00 4.9 3 Nordeste 5 Nordeste 0 -- -- 95
2018-05-02 06:00:00 5.1 0 Calma 2 Noroeste 0 -- -- 95
2018-05-02 05:00:00 5.5 0 Calma 2 Oeste 0 -- -- 94
2018-05-02 04:00:00 5.9 0 Calma 3 Nordeste 0 -- -- 93
2018-05-02 03:00:00 6.4 0 Calma 2 Oeste 0 -- -- 92
2018-05-02 02:00:00 7.1 0 Calma 2 Noroeste 0 -- -- 91
2018-05-02 01:00:00 7.4 0 Calma 3 Noroeste 0 -- -- 89
2018-05-02 00:00:00 8.2 0 Calma 4 Noroeste 0 -- -- 85
2018-05-01 23:00:00 8.7 0 Calma 2 Este 0 -- -- 79
2018-05-01 22:00:00 9.2 0 Calma 4 Sudoeste 0 -- -- 79
2018-05-01 21:00:00 10.9 0 Calma 12 Oeste 0 -- -- 72
2018-05-01 20:00:00 14.1 2 Oeste 10 Noroeste 0 -- -- 56
2018-05-01 19:00:00 12.9 2 Oeste 11 Noroeste 0 -- -- 62
2018-05-01 18:00:00 12.7 0 Calma 9 Este 0 -- -- 64
2018-05-01 17:00:00 12.2 3 Sur 12 Sur 0 -- -- 70
2018-05-01 16:00:00 11.6 4 Sur 12 Sudeste 0 -- -- 75
2018-05-01 15:00:00 10 0 Calma 8 Sudeste 0 -- -- 84
2018-05-01 14:00:00 9.1 3 Oeste 24 Noroeste 0 -- -- 82
2018-05-01 13:00:00 9.3 12 Noroeste 30 Norte 0 -- -- 80
2018-05-01 12:00:00 13.8 5 Oeste 16 Noroeste 0 -- -- 67
2018-05-01 11:00:00 11.6 3 Oeste 10 Sudoeste 0 -- -- 77
2018-05-01 10:00:00 10 4 Oeste 14 Noroeste 0 -- -- 81
2018-05-01 09:00:00 8.6 2 Noroeste 6 Oeste 0 -- -- 86
2018-05-01 08:00:00 6.4 0 Calma 8 Nordeste 0 -- -- 89
2018-05-01 07:00:00 5.6 0 Calma 5 Nordeste 0 -- -- 89
2018-05-01 06:00:00 5.9 0 Calma 2 Noroeste 0 -- -- 88
2018-05-01 05:00:00 6.5 0 Calma 2 Sudeste 0 -- -- 85
2018-05-01 04:00:00 7 0 Calma 2 Oeste 0 -- -- 85
2018-05-01 03:00:00 7.4 0 Calma 4 Este 0 -- -- 82
2018-05-01 02:00:00 8.3 0 Calma 8 Este 0 -- -- 78
2018-05-01 01:00:00 9.4 0 Calma 5 Oeste 0 -- -- 71
2018-05-01 00:00:00 9.8 3 Oeste 8 Noroeste 0 -- -- 69
2018-04-30 23:00:00 10.7 4 Oeste 9 Oeste 0 -- -- 66
2018-04-30 22:00:00 11.1 0 Calma 9 Noroeste 0 -- -- 62
2018-04-30 21:00:00 12.7 2 Oeste 19 Noroeste 0 -- -- 55
2018-04-30 20:00:00 15.2 11 Oeste 23 Oeste 0 -- -- 44
2018-04-30 19:00:00 16.7 6 Sudoeste 17 Noroeste 0 -- -- 41
2018-04-30 18:00:00 16 6 Oeste 18 Noroeste 0 -- -- 44
2018-04-30 17:00:00 17.3 5 Norte 20 Oeste 0 -- -- 44
2018-04-30 16:00:00 16.3 6 Noroeste 17 Oeste 0 -- -- 47
2018-04-30 15:00:00 16.6 5 Noroeste 21 Oeste 0 -- -- 44
2018-04-30 14:00:00 15.7 5 Noroeste 19 Noroeste 0 -- -- 48
2018-04-30 13:00:00 15.4 5 Oeste 19 Oeste 0 -- -- 47
2018-04-30 12:00:00 14.1 5 Sudoeste 16 Sudoeste 0 -- -- 56
2018-04-30 11:00:00 11.4 2 Sur 8 Oeste 0 -- -- 75
2018-04-30 10:00:00 9.5 2 Sudoeste 8 Oeste 0 -- -- 88
2018-04-30 09:00:00 9.4 0 Calma 5 Sudoeste 0 -- -- 89
2018-04-30 08:00:00 8.9 0 Calma 5 Oeste 0 -- -- 93
2018-04-30 07:00:00 8.8 0 Calma 8 Oeste 0 -- -- 94
2018-04-30 06:00:00 9.1 3 Sudoeste 8 Sudoeste 0 -- -- 93
2018-04-30 05:00:00 9.1 0 Calma 9 Oeste 0 -- -- 92
2018-04-30 04:00:00 9.6 3 Oeste 9 Oeste 0 -- -- 91
2018-04-30 03:00:00 9.8 0 Calma 6 Oeste 0 -- -- 91
2018-04-30 02:00:00 10 0 Calma 7 Sudoeste 0 -- -- 90
2018-04-30 01:00:00 9.9 2 Sudoeste 9 Oeste 0 -- -- 88
2018-04-30 00:00:00 10.3 2 Sudoeste 14 Sudoeste 0 -- -- 85
2018-04-29 23:00:00 11.8 4 Oeste 18 Oeste 0 -- -- 76
2018-04-29 22:00:00 12.8 5 Sudoeste 26 Sudoeste 0 -- -- 59
2018-04-29 21:00:00 14.3 9 Sudoeste 31 Sudoeste 0 -- -- 53
2018-04-29 20:00:00 15.9 9 Sudoeste 26 Sudoeste 0 -- -- 45
2018-04-29 19:00:00 16.6 8 Sudoeste 25 Oeste 0 -- -- 43
2018-04-29 18:00:00 17.4 8 Oeste 33 Noroeste 0 -- -- 42
2018-04-29 17:00:00 18 11 Oeste 37 Oeste 0 -- -- 40
2018-04-29 16:00:00 17 9 Sudoeste 32 Sudoeste 0 -- -- 47
2018-04-29 15:00:00 15.4 9 Oeste 30 Oeste 0 -- -- 52
2018-04-29 14:00:00 12.2 11 Noroeste 32 Oeste 0 -- -- 66
2018-04-29 13:00:00 13.4 8 Sudoeste 28 Oeste 0 -- -- 57
2018-04-29 12:00:00 12.7 10 Sudoeste 29 Oeste 0 -- -- 60
2018-04-29 11:00:00 11.4 8 Sudoeste 27 Sudoeste 0 -- -- 65
2018-04-29 10:00:00 9.4 8 Sudoeste 30 Sudoeste 0 -- -- 75
2018-04-29 09:00:00 9 8 Sudoeste 26 Oeste 0 -- -- 79
2018-04-29 08:00:00 8.9 8 Sudoeste 26 Sudoeste 0 -- -- 79
2018-04-29 07:00:00 8.8 9 Sudoeste 30 Sudoeste 0 -- -- 79
2018-04-29 06:00:00 8.6 6 Sudoeste 26 Sudoeste 0 -- -- 78
2018-04-29 05:00:00 9.4 9 Sudoeste 27 Sudoeste 0 -- -- 78
2018-04-29 04:00:00 10.1 9 Sudoeste 28 Sudoeste 0 -- -- 79
2018-04-29 03:00:00 11.3 8 Sudoeste 24 Oeste 0 -- -- 71
2018-04-29 02:00:00 11.7 8 Sudoeste 26 Sudoeste 0 -- -- 69
2018-04-29 01:00:00 12 6 Sudoeste 22 Sudoeste 0 -- -- 69
2018-04-29 00:00:00 12.3 8 Sudoeste 27 Oeste 0 -- -- 65
2018-04-28 23:00:00 13.7 9 Sudoeste 29 Sudoeste 0 -- -- 59
2018-04-28 22:00:00 14.7 5 Sudoeste 19 Sudoeste 0 -- -- 48
2018-04-28 21:00:00 16.2 8 Sudoeste 22 Sudoeste 0 -- -- 45
2018-04-28 20:00:00 18.4 8 Sudoeste 33 Oeste 0 -- -- 40
2018-04-28 19:00:00 18.1 8 Sudoeste 31 Oeste 0 -- -- 38
2018-04-28 18:00:00 19.3 8 Sudoeste 32 Sudoeste 0 -- -- 41
2018-04-28 17:00:00 21 10 Sudoeste 40 Noroeste 0 -- -- 41
2018-04-28 16:00:00 21.5 11 Sudoeste 35 Noroeste 0 -- -- 41
2018-04-28 15:00:00 21.1 9 Sudoeste 34 Noroeste 0 -- -- 52
2018-04-28 14:00:00 20.5 8 Sudoeste 27 Oeste 0 -- -- 54
2018-04-28 13:00:00 20 8 Sudoeste 28 Oeste 0 -- -- 59
2018-04-28 12:00:00 19 8 Sudoeste 20 Sudoeste 0 -- -- 64
2018-04-28 11:00:00 16 5 Oeste 16 Sudoeste 0 -- -- 76
2018-04-28 10:00:00 14.6 3 Oeste 9 Sudoeste 0 -- -- 81
2018-04-28 09:00:00 13.7 2 Sudoeste 7 Sur 0 -- -- 84
2018-04-28 08:00:00 12.9 2 Oeste 9 Oeste 0 -- -- 87
2018-04-28 07:00:00 12.9 0 Calma 8 Oeste 0 -- -- 85
2018-04-28 06:00:00 13.7 3 Sudoeste 9 Oeste 0 -- -- 83
2018-04-28 05:00:00 14.4 3 Oeste 11 Oeste 0 -- -- 78
2018-04-28 04:00:00 15.3 2 Sudoeste 14 Noroeste 0 -- -- 73
2018-04-28 03:00:00 16.1 4 Sudoeste 14 Oeste 0 -- -- 70
2018-04-28 02:00:00 16.8 4 Sudoeste 11 Oeste 0 -- -- 70
2018-04-28 01:00:00 18 5 Oeste 15 Noroeste 0 -- -- 70
2018-04-28 00:00:00 19 3 Sudoeste 14 Sudoeste 0 -- -- 66
2018-04-27 23:00:00 18.7 0 Calma 5 Oeste 0 -- -- 65
2018-04-27 22:00:00 19.8 0 Calma 8 Oeste 0 -- -- 60
2018-04-27 21:00:00 22 5 Sudoeste 15 Sudoeste 0 -- -- 49
2018-04-27 20:00:00 24.1 5 Sudoeste 18 Oeste 0 -- -- 43
2018-04-27 19:00:00 24.9 6 Sudoeste 18 Sur 0 -- -- 38
2018-04-27 18:00:00 25.7 7 Sudoeste 27 Sudoeste 0 -- -- 42
2018-04-27 17:00:00 25.5 6 Sudoeste 24 Oeste 0 -- -- 53
2018-04-27 16:00:00 24.9 7 Sudoeste 19 Noroeste 0 -- -- 54
2018-04-27 15:00:00 24.1 6 Oeste 19 Noroeste 0 -- -- 59
2018-04-27 14:00:00 22.7 5 Sudoeste 18 Noroeste 0 -- -- 61
2018-04-27 13:00:00 21.7 5 Sudoeste 16 Oeste 0 -- -- 64
2018-04-27 12:00:00 20.2 6 Oeste 19 Oeste 0 -- -- 68
2018-04-27 11:00:00 18.1 4 Sudoeste 14 Noroeste 0 -- -- 74
2018-04-27 10:00:00 17.2 6 Oeste 18 Noroeste 0 -- -- 77
2018-04-27 09:00:00 16.5 4 Sudoeste 16 Noroeste 0 -- -- 80
2018-04-27 08:00:00 16.1 4 Sudoeste 11 Sudoeste 0 -- -- 83
2018-04-27 07:00:00 16.1 5 Sudoeste 18 Sudoeste 0 -- -- 82
2018-04-27 06:00:00 16.2 6 Sudoeste 28 Oeste 0 -- -- 82
2018-04-27 05:00:00 16.6 6 Sudoeste 22 Oeste 0 -- -- 83
2018-04-27 04:00:00 16.8 6 Sudoeste 28 Oeste 0 -- -- 81
2018-04-27 03:00:00 17.6 6 Oeste 24 Noroeste 0 -- -- 78
2018-04-27 02:00:00 18.5 7 Sudoeste 27 Sudoeste 0 -- -- 80
2018-04-27 01:00:00 19 8 Sudoeste 31 Oeste 0 -- -- 76
2018-04-27 00:00:00 19.5 7 Sudoeste 22 Norte 0 -- -- 70
2018-04-26 23:00:00 20.3 8 Sudoeste 31 Oeste 0 -- -- 67
2018-04-26 22:00:00 22.7 10 Sudoeste 24 Sudoeste 0 -- -- 59
2018-04-26 21:00:00 24.7 2 Sudoeste 8 Sur 0 -- -- 42
2018-04-26 20:00:00 27.5 2 Sudoeste 8 Oeste 0 -- -- 37
2018-04-26 19:00:00 29.1 3 Oeste 12 Este 0 -- -- 32
2018-04-26 18:00:00 31.3 5 Este 16 Sudeste 0 -- -- 29
2018-04-26 17:00:00 30.7 5 Este 15 Nordeste 0 -- -- 32
2018-04-26 16:00:00 30 5 Este 19 Este 0 -- -- 34
2018-04-26 15:00:00 29.2 5 Nordeste 19 Este 0 -- -- 40
2018-04-26 14:00:00 27.5 6 Este 20 Este 0 -- -- 42
2018-04-26 13:00:00 26 7 Nordeste 17 Este 0 -- -- 44
2018-04-26 12:00:00 23.1 6 Este 15 Sudeste 0 -- -- 51
2018-04-26 11:00:00 19.5 4 Nordeste 12 Nordeste 0 -- -- 62
2018-04-26 10:00:00 16.5 0 Calma 6 Este 0 -- -- 68
2018-04-26 09:00:00 14.8 0 Calma 6 Sudeste 0 -- -- 74
2018-04-26 08:00:00 14.2 0 Calma 3 Este 0 -- -- 74
2018-04-26 07:00:00 14.5 0 Calma 4 Norte 0 -- -- 72
2018-04-26 06:00:00 14.3 0 Calma 6 Nordeste 0 -- -- 72
2018-04-26 05:00:00 15.2 5 Nordeste 10 Norte 0 -- -- 66
2018-04-26 04:00:00 16.2 0 Calma 13 Nordeste 0 -- -- 62
2018-04-26 03:00:00 16.9 6 Nordeste 13 Nordeste 0 -- -- 58
2018-04-26 02:00:00 17.7 6 Nordeste 13 Nordeste 0 -- -- 57
2018-04-26 01:00:00 18.6 7 Nordeste 15 Nordeste 0 -- -- 56
2018-04-26 00:00:00 19.9 5 Nordeste 18 Nordeste 0 -- -- 51
2018-04-25 23:00:00 21 6 Nordeste 14 Nordeste 0 -- -- 49
2018-04-25 22:00:00 21.3 4 Nordeste 13 Este 0 -- -- 52
2018-04-25 21:00:00 22.9 6 Sudeste 10 Sudeste 0 -- -- 47
2018-04-25 20:00:00 25.4 0 Calma 9 Noroeste 0 -- -- 46
2018-04-25 19:00:00 25.6 3 Oeste 10 Oeste 0 -- -- 42
2018-04-25 18:00:00 25.6 3 Oeste 9 Noroeste 0 -- -- 41
2018-04-25 17:00:00 26.2 3 Sudoeste 15 Sudeste 0 -- -- 40
2018-04-25 16:00:00 27.8 3 Sudeste 12 Sudeste 0 -- -- 39
2018-04-25 15:00:00 26.4 5 Sudeste 17 Sudeste 0 -- -- 42
2018-04-25 14:00:00 26 4 Este 10 Nordeste 0 -- -- 42
2018-04-25 13:00:00 23.1 3 Sur 11 Sudeste 0 -- -- 49
2018-04-25 12:00:00 21.3 3 Sudeste 12 Este 0 -- -- 57
2018-04-25 11:00:00 17.9 2 Sur 9 Noroeste 0 -- -- 71
2018-04-25 10:00:00 16.1 3 Oeste 9 Noroeste 0 -- -- 80
2018-04-25 09:00:00 15.5 3 Oeste 6 Oeste 0 -- -- 83
2018-04-25 08:00:00 15.1 0 Calma 8 Oeste 0 -- -- 83
2018-04-25 07:00:00 15.3 2 Norte 6 Noroeste 0 -- -- 69
2018-04-25 06:00:00 16.2 0 Calma 17 Nordeste 0 -- -- 65
2018-04-25 05:00:00 17.2 9 Nordeste 19 Nordeste 0 -- -- 58
2018-04-25 04:00:00 17.2 6 Nordeste 17 Nordeste 0 -- -- 60
2018-04-25 03:00:00 17.8 10 Nordeste 22 Nordeste 0 -- -- 58
2018-04-25 02:00:00 18.2 4 Norte 8 Norte 0 -- -- 71
2018-04-25 01:00:00 19.1 0 Calma 4 Noroeste 0 -- -- 68
2018-04-25 00:00:00 19.8 0 Calma 9 Sudeste 0 -- -- 66
2018-04-24 23:00:00 21.2 2 Sur 16 Sudoeste 0 -- -- 60
2018-04-24 22:00:00 22.8 5 Sudoeste 19 Sudeste 0 -- -- 54
2018-04-24 21:00:00 25.8 7 Este 20 Sudeste 0 -- -- 34
2018-04-24 20:00:00 29 13 Sudeste 28 Este 0 -- -- 28
2018-04-24 19:00:00 30.7 6 Nordeste 24 Nordeste 0 -- -- 30
2018-04-24 18:00:00 32.3 11 Nordeste 22 Nordeste 0 -- -- 27
2018-04-24 17:00:00 30.5 6 Nordeste 22 Este 0 -- -- 28
2018-04-24 16:00:00 30.8 7 Nordeste 26 Norte 0 -- -- 29
2018-04-24 15:00:00 30.7 6 Este 22 Este 0 -- -- 27
2018-04-24 14:00:00 29.9 9 Nordeste 24 Este 0 -- -- 29
2018-04-24 13:00:00 27.9 13 Nordeste 25 Nordeste 0 -- -- 32
2018-04-24 12:00:00 25.3 14 Nordeste 27 Nordeste 0 -- -- 34
2018-04-24 11:00:00 22.2 13 Nordeste 24 Nordeste 0 -- -- 36
2018-04-24 10:00:00 20.3 11 Nordeste 24 Nordeste 0 -- -- 38
2018-04-24 09:00:00 17.8 5 Este 10 Este 0 -- -- 46
2018-04-24 08:00:00 17.6 4 Nordeste 10 Nordeste 0 -- -- 48
2018-04-24 07:00:00 18.5 6 Nordeste 23 Nordeste 0 -- -- 47
2018-04-24 06:00:00 19.1 11 Nordeste 21 Este 0 -- -- 46
2018-04-24 05:00:00 19.9 8 Nordeste 17 Norte 0 -- -- 47
2018-04-24 04:00:00 20.7 9 Nordeste 21 Nordeste 0 -- -- 45
2018-04-24 03:00:00 20.8 6 Nordeste 26 Este 0 -- -- 47
2018-04-24 02:00:00 21.5 14 Este 39 Este 0 -- -- 44
2018-04-24 01:00:00 20.8 10 Este 18 Este 0 -- -- 45
2018-04-24 00:00:00 20.9 4 Este 24 Nordeste 0 -- -- 46